Time;durP1;ratioP1;P1;durP2;ratioP2;P2;SDS_P1;SDS_P2;PMS_P1;PMS_P2;Temp;Humidity;BMP_temperature;BMP_pressure;BME280_temperature;BME280_humidity;BME280_pressure;Samples;Min_cycle;Max_cycle;Signal;HPM_P1;HPM_P2
2022/07/06 00:01:36;;;;;;;17.23;3.28;;;29.50;46.80;;;;;;5054120;28;20037;-69
2022/07/06 00:04:03;;;;;;;13.60;3.00;;;29.40;47.10;;;;;;5053916;28;20040;-73
2022/07/06 00:06:29;;;;;;;12.02;2.85;;;29.40;46.90;;;;;;5054206;28;20025;-70
2022/07/06 00:08:55;;;;;;;10.63;3.33;;;29.40;47.30;;;;;;5054012;28;20082;-68
2022/07/06 00:11:21;;;;;;;12.20;3.25;;;29.30;47.20;;;;;;5053957;28;20084;-74
2022/07/06 00:13:47;;;;;;;10.93;3.72;;;29.30;47.30;;;;;;5053777;28;20496;-72
2022/07/06 00:16:13;;;;;;;15.70;3.05;;;29.30;47.60;;;;;;5054000;28;20021;-69
2022/07/06 00:18:39;;;;;;;9.27;2.95;;;29.30;47.50;;;;;;5053574;28;20195;-70
2022/07/06 00:21:04;;;;;;;12.15;3.60;;;29.30;47.70;;;;;;5053991;28;20033;-71
2022/07/06 00:23:30;;;;;;;9.77;3.28;;;29.20;47.60;;;;;;5035565;28;20033;-71
2022/07/06 00:25:56;;;;;;;9.00;2.80;;;29.20;47.70;;;;;;5035650;28;20404;-70
2022/07/06 00:28:22;;;;;;;12.40;3.53;;;29.10;47.70;;;;;;5053823;28;20108;-71
2022/07/06 00:30:47;;;;;;;13.20;3.45;;;29.10;47.70;;;;;;5053752;28;20122;-69
2022/07/06 00:33:13;;;;;;;11.85;3.00;;;29.10;47.90;;;;;;5053558;28;20021;-68
2022/07/06 00:35:39;;;;;;;10.43;3.10;;;29.10;47.90;;;;;;5053216;28;20029;-68
2022/07/06 00:38:05;;;;;;;12.70;3.03;;;29.10;47.90;;;;;;5053546;28;20031;-69
2022/07/06 00:40:30;;;;;;;8.68;2.90;;;29.10;47.90;;;;;;5053314;28;20399;-69
2022/07/06 00:42:57;;;;;;;8.27;3.03;;;29.10;47.90;;;;;;5053113;28;20444;-71
2022/07/06 00:45:23;;;;;;;8.93;2.90;;;29.10;48.00;;;;;;5053634;28;20541;-68
2022/07/06 00:47:49;;;;;;;9.55;3.75;;;29.10;47.90;;;;;;5035181;28;20115;-70
2022/07/06 00:50:22;;;;;;;8.27;3.00;;;29.10;47.80;;;;;;5053645;28;20024;-70
2022/07/06 00:52:52;;;;;;;10.13;2.97;;;29.10;48.10;;;;;;5053530;28;20029;-69
2022/07/06 00:55:26;;;;;;;13.23;3.33;;;29.10;48.00;;;;;;5053365;28;20040;-69
2022/07/06 00:57:53;;;;;;;7.28;2.92;;;29.00;47.00;;;;;;5053147;28;20092;-69
2022/07/06 01:00:21;;;;;;;11.73;3.72;;;29.00;48.20;;;;;;5035247;28;20491;-70
2022/07/06 01:02:48;;;;;;;20.48;3.35;;;28.90;48.20;;;;;;5053487;28;20087;-71
2022/07/06 01:05:16;;;;;;;7.35;3.40;;;28.90;48.30;;;;;;5034801;28;20108;-68
2022/07/06 01:07:45;;;;;;;10.02;3.22;;;28.80;48.20;;;;;;5053479;28;20029;-70
2022/07/06 01:10:12;;;;;;;13.93;3.60;;;28.70;48.40;;;;;;5053362;28;20021;-71
2022/07/06 01:12:40;;;;;;;16.27;3.30;;;28.70;48.60;;;;;;5052992;28;20533;-69
2022/07/06 01:15:11;;;;;;;13.75;3.30;;;28.60;48.70;;;;;;5052761;28;20025;-72
2022/07/06 01:17:39;;;;;;;11.30;3.22;;;28.60;48.50;;;;;;5053365;28;20029;-71
2022/07/06 01:20:23;;;;;;;9.10;3.03;;;28.60;48.60;;;;;;5053254;28;20021;-70
2022/07/06 01:22:52;;;;;;;11.35;3.75;;;28.60;47.40;;;;;;5053048;28;20473;-71
2022/07/06 01:25:18;;;;;;;9.45;2.83;;;28.60;48.50;;;;;;5032836;28;20028;-72
2022/07/06 01:27:44;;;;;;;12.57;3.30;;;28.60;48.70;;;;;;5033513;28;20033;-68
2022/07/06 01:30:13;;;;;;;12.48;3.50;;;28.60;48.60;;;;;;5033023;28;20022;-73
2022/07/06 01:32:40;;;;;;;12.10;3.17;;;28.60;48.80;;;;;;5033096;28;20482;-69
2022/07/06 01:35:08;;;;;;;12.38;3.42;;;28.60;48.80;;;;;;5032898;28;20096;-69
2022/07/06 01:37:33;;;;;;;13.18;3.00;;;28.60;48.60;;;;;;5033098;28;20498;-70
2022/07/06 01:40:00;;;;;;;9.45;3.30;;;28.50;48.80;;;;;;5032716;28;20025;-71
2022/07/06 01:42:27;;;;;;;12.20;3.10;;;28.50;49.20;;;;;;5032563;28;20034;-69
2022/07/06 01:44:53;;;;;;;9.23;3.10;;;28.50;49.00;;;;;;5033005;28;20109;-69
2022/07/06 01:47:19;;;;;;;11.38;3.20;;;28.50;49.20;;;;;;5033045;28;20111;-70
2022/07/06 01:49:45;;;;;;;9.30;2.95;;;28.40;49.00;;;;;;5033105;28;20060;-71
2022/07/06 01:52:10;;;;;;;10.20;3.08;;;28.40;49.20;;;;;;5032963;28;20438;-71
2022/07/06 01:54:36;;;;;;;11.70;3.53;;;28.40;49.30;;;;;;5032722;28;20037;-71
2022/07/06 01:57:02;;;;;;;8.85;3.45;;;28.40;49.30;;;;;;5032874;28;20026;-71
2022/07/06 01:59:28;;;;;;;9.45;2.83;;;28.40;49.20;;;;;;5032415;28;20069;-69
2022/07/06 02:01:53;;;;;;;14.90;3.90;;;28.40;49.30;;;;;;5032573;28;20466;-69
2022/07/06 02:04:19;;;;;;;10.93;4.07;;;28.40;49.60;;;;;;5033043;28;20036;-70
2022/07/06 02:06:45;;;;;;;10.25;3.50;;;28.40;49.70;;;;;;5032728;28;20026;-68
2022/07/06 02:09:10;;;;;;;12.85;3.92;;;28.30;49.60;;;;;;5047820;28;20026;-71
2022/07/06 02:11:36;;;;;;;12.40;3.97;;;28.30;49.30;;;;;;5047714;28;20025;-71
2022/07/06 02:14:02;;;;;;;12.23;3.67;;;28.30;49.30;;;;;;5032448;28;20467;-69
2022/07/06 02:16:28;;;;;;;10.88;4.15;;;28.30;49.20;;;;;;5032408;28;20029;-69
2022/07/06 02:18:54;;;;;;;13.60;4.40;;;28.30;49.10;;;;;;5035669;28;20071;-72
2022/07/06 02:21:20;;;;;;;17.23;5.40;;;28.20;48.80;;;;;;5035863;28;20017;-69
2022/07/06 02:23:46;;;;;;;18.25;5.32;;;28.30;48.40;;;;;;5035845;28;20469;-68
2022/07/06 02:26:11;;;;;;;14.63;4.68;;;28.20;48.10;;;;;;5035694;28;20032;-68
2022/07/06 02:28:37;;;;;;;21.73;5.18;;;28.20;48.10;;;;;;5035950;28;20025;-70
2022/07/06 02:31:03;;;;;;;15.73;4.65;;;28.20;48.10;;;;;;5018020;28;20017;-72
2022/07/06 02:33:28;;;;;;;14.88;5.00;;;28.20;48.00;;;;;;5035543;28;20113;-70
2022/07/06 02:35:54;;;;;;;18.98;5.07;;;28.20;47.90;;;;;;5035591;28;20047;-69
2022/07/06 02:38:20;;;;;;;13.77;4.57;;;28.10;47.90;;;;;;5035637;28;20097;-71
2022/07/06 02:40:46;;;;;;;14.80;5.22;;;28.10;47.90;;;;;;5050833;28;20017;-69
2022/07/06 02:43:12;;;;;;;12.75;4.38;;;28.00;47.70;;;;;;5050614;28;20517;-70
2022/07/06 02:45:37;;;;;;;19.20;4.63;;;27.90;47.90;;;;;;5035270;28;20014;-72
2022/07/06 02:48:04;;;;;;;18.42;5.25;;;27.90;47.80;;;;;;5035585;28;20083;-71
2022/07/06 02:50:30;;;;;;;14.50;4.80;;;27.80;47.60;;;;;;5035364;28;20550;-70
2022/07/06 02:52:58;;;;;;;13.20;4.45;;;27.70;48.00;;;;;;5035416;28;20096;-72
2022/07/06 02:55:24;;;;;;;16.27;5.38;;;27.70;48.10;;;;;;5035185;28;20080;-71
2022/07/06 02:57:49;;;;;;;16.98;4.60;;;27.70;48.00;;;;;;5035096;28;20033;-72
2022/07/06 03:00:16;;;;;;;11.52;4.47;;;27.70;48.10;;;;;;5035486;28;20026;-69
2022/07/06 03:02:41;;;;;;;14.80;4.47;;;27.70;48.10;;;;;;5035033;28;20112;-74
2022/07/06 03:05:08;;;;;;;10.00;4.72;;;27.60;48.30;;;;;;5035217;28;20068;-70
2022/07/06 03:07:33;;;;;;;12.93;4.80;;;27.60;48.20;;;;;;5035194;28;20025;-72
2022/07/06 03:09:59;;;;;;;20.27;7.00;;;27.50;48.50;;;;;;5035043;28;20063;-70
2022/07/06 03:12:25;;;;;;;21.77;8.07;;;27.40;48.30;;;;;;5035096;28;20360;-70
2022/07/06 03:14:50;;;;;;;27.77;10.43;;;27.40;48.40;;;;;;5034927;28;20030;-72
2022/07/06 03:17:16;;;;;;;30.48;15.77;;;27.50;48.40;;;;;;5034969;28;20044;-70
2022/07/06 03:19:42;;;;;;;34.42;19.13;;;27.50;48.20;;;;;;5035349;28;20022;-69
2022/07/06 03:22:07;;;;;;;35.25;19.75;;;27.50;48.40;;;;;;5034640;28;20532;-69
2022/07/06 03:24:34;;;;;;;26.75;17.83;;;27.50;48.40;;;;;;5035086;28;20021;-72
2022/07/06 03:27:00;;;;;;;25.25;12.77;;;27.60;47.40;;;;;;5034820;28;20033;-69
2022/07/06 03:29:26;;;;;;;25.60;11.57;;;27.60;48.30;;;;;;5034449;28;20025;-72
2022/07/06 03:31:51;;;;;;;21.65;10.00;;;27.50;48.30;;;;;;5017150;28;20037;-68
2022/07/06 03:34:17;;;;;;;21.15;8.68;;;27.50;48.50;;;;;;5034720;28;20026;-72
2022/07/06 03:36:43;;;;;;;18.02;6.57;;;27.50;48.50;;;;;;5034841;28;20101;-69
2022/07/06 03:39:08;;;;;;;14.80;5.95;;;27.40;48.50;;;;;;5049967;28;20048;-70
2022/07/06 03:41:34;;;;;;;17.55;6.60;;;27.30;48.60;;;;;;5034470;28;20052;-70
2022/07/06 03:44:00;;;;;;;12.57;5.90;;;27.30;48.40;;;;;;5034770;28;20021;-70
2022/07/06 03:46:25;;;;;;;14.13;4.45;;;27.20;48.30;;;;;;5034493;28;20049;-71
2022/07/06 03:48:51;;;;;;;16.38;5.07;;;27.20;48.70;;;;;;5034453;28;20029;-69
2022/07/06 03:51:17;;;;;;;15.32;5.10;;;27.20;48.50;;;;;;5034240;28;20024;-69
2022/07/06 03:53:42;;;;;;;14.82;4.90;;;27.10;48.70;;;;;;5034330;28;20057;-69
2022/07/06 03:58:52;;;;;;;15.00;4.45;;;27.10;48.40;;;;;;5034336;28;20068;-72
2022/07/06 04:01:18;;;;;;;14.25;4.00;;;27.10;48.70;;;;;;5034508;28;20450;-70
2022/07/06 04:03:44;;;;;;;13.52;4.78;;;27.10;48.70;;;;;;5034572;28;20419;-71
2022/07/06 04:06:10;;;;;;;12.02;4.43;;;27.10;48.70;;;;;;5035483;28;20036;-71
2022/07/06 04:08:36;;;;;;;18.13;4.20;;;27.10;48.80;;;;;;5040730;28;20069;-71
2022/07/06 04:11:02;;;;;;;13.85;4.43;;;27.10;48.70;;;;;;5040447;28;20025;-68
2022/07/06 04:13:28;;;;;;;15.82;4.20;;;27.10;48.80;;;;;;5037235;28;20025;-69
2022/07/06 04:15:53;;;;;;;21.98;4.55;;;27.10;48.90;;;;;;5034609;28;20430;-69
2022/07/06 04:18:19;;;;;;;11.23;3.40;;;27.10;48.70;;;;;;5034303;28;20079;-70
2022/07/06 04:20:45;;;;;;;13.23;3.72;;;27.10;48.80;;;;;;5034529;28;20040;-71
2022/07/06 04:23:11;;;;;;;15.27;3.80;;;27.10;49.10;;;;;;5033881;28;20471;-71
2022/07/06 04:25:36;;;;;;;10.30;3.65;;;27.20;49.00;;;;;;5034073;28;20022;-70
2022/07/06 04:28:02;;;;;;;18.45;3.95;;;27.20;48.90;;;;;;5034358;28;20108;-73
2022/07/06 04:30:29;;;;;;;12.68;3.58;;;27.20;48.80;;;;;;5034234;28;20092;-72
2022/07/06 04:32:56;;;;;;;14.18;3.40;;;27.20;48.70;;;;;;5049654;28;20038;-69
2022/07/06 04:35:21;;;;;;;13.35;3.97;;;27.20;48.90;;;;;;5033640;28;20032;-70
2022/07/06 04:37:48;;;;;;;11.00;3.72;;;27.20;48.80;;;;;;5033842;28;20029;-70
2022/07/06 04:40:14;;;;;;;15.48;3.95;;;27.20;48.90;;;;;;5032956;28;20063;-71
2022/07/06 04:42:40;;;;;;;20.25;3.95;;;27.20;49.10;;;;;;5033742;28;20523;-72
2022/07/06 04:45:08;;;;;;;16.23;3.75;;;27.10;49.10;;;;;;5033279;28;20104;-71
2022/07/06 04:47:34;;;;;;;10.85;3.40;;;27.10;48.90;;;;;;5048989;28;20071;-72
2022/07/06 04:50:00;;;;;;;11.60;3.70;;;27.10;49.10;;;;;;5048592;28;20037;-70
2022/07/06 04:52:27;;;;;;;14.80;3.42;;;27.20;49.00;;;;;;5033308;28;20055;-70
2022/07/06 04:54:54;;;;;;;15.80;4.82;;;27.20;48.70;;;;;;5032866;28;20030;-72
2022/07/06 04:57:22;;;;;;;13.00;3.97;;;27.20;49.00;;;;;;5033448;28;20413;-70
2022/07/06 04:59:47;;;;;;;15.95;3.60;;;27.20;48.80;;;;;;5032784;28;20061;-69
2022/07/06 05:02:13;;;;;;;11.48;3.47;;;27.20;48.80;;;;;;5047922;28;20037;-74
2022/07/06 05:04:39;;;;;;;12.15;3.75;;;27.20;48.70;;;;;;5033051;28;20096;-72
2022/07/06 05:07:05;;;;;;;16.70;3.65;;;27.20;48.80;;;;;;5032768;28;20021;-72
2022/07/06 05:09:31;;;;;;;11.85;4.20;;;27.20;48.70;;;;;;5032984;28;20033;-70
2022/07/06 05:11:56;;;;;;;13.23;3.75;;;27.30;48.50;;;;;;5050288;28;20013;-72
2022/07/06 05:14:22;;;;;;;15.63;4.13;;;27.40;48.40;;;;;;5072596;28;20025;-73
2022/07/06 05:16:48;;;;;;;10.60;3.75;;;27.50;48.40;;;;;;5072594;28;20024;-74
2022/07/06 05:19:15;;;;;;;13.57;4.18;;;27.60;48.10;;;;;;5054641;28;20036;-74
2022/07/06 05:21:40;;;;;;;12.95;3.63;;;27.80;48.20;;;;;;5072382;28;20024;-74
2022/07/06 05:24:06;;;;;;;12.43;3.65;;;28.00;48.00;;;;;;5072674;28;20034;-73
2022/07/06 05:26:33;;;;;;;11.30;3.28;;;28.20;47.50;;;;;;5072640;28;20021;-74
2022/07/06 05:28:58;;;;;;;13.85;3.47;;;28.50;47.10;;;;;;5062738;28;20143;-75
2022/07/06 05:31:24;;;;;;;13.43;3.55;;;28.90;46.50;;;;;;5056741;28;20032;-73
2022/07/06 05:33:50;;;;;;;15.93;4.05;;;29.20;46.00;;;;;;5072410;28;20465;-73
2022/07/06 05:36:16;;;;;;;12.77;3.70;;;29.60;45.60;;;;;;5072868;28;20035;-74
2022/07/06 05:38:42;;;;;;;15.95;3.70;;;29.90;45.10;;;;;;5072379;28;20547;-74
2022/07/06 05:41:07;;;;;;;13.70;3.58;;;30.20;44.60;;;;;;5054564;28;20021;-71
2022/07/06 05:43:36;;;;;;;19.08;3.83;;;30.40;44.00;;;;;;5072188;28;20040;-74
2022/07/06 05:46:01;;;;;;;16.45;3.40;;;30.70;43.90;;;;;;5054491;28;20016;-77
2022/07/06 05:51:11;;;;;;;22.40;4.55;;;31.40;42.60;;;;;;5062862;28;20044;-70
2022/07/06 05:53:37;;;;;;;12.40;3.30;;;31.70;42.30;;;;;;5060966;28;20021;-71
2022/07/06 05:56:03;;;;;;;18.27;4.40;;;31.80;41.80;;;;;;5061228;28;20366;-70
2022/07/06 05:58:29;;;;;;;16.58;3.97;;;32.00;41.70;;;;;;5061220;28;20094;-76
2022/07/06 06:00:56;;;;;;;12.15;3.70;;;32.10;41.00;;;;;;5056671;28;20032;-72
2022/07/06 06:03:23;;;;;;;14.68;3.50;;;32.30;41.40;;;;;;5042147;28;20040;-75
2022/07/06 06:05:49;;;;;;;12.35;3.88;;;32.40;40.80;;;;;;5059261;28;20027;-74
2022/07/06 06:08:15;;;;;;;13.35;3.30;;;32.60;40.50;;;;;;5056744;28;20036;-72
2022/07/06 06:10:43;;;;;;;15.15;3.58;;;32.80;40.40;;;;;;5056168;28;20520;-71
2022/07/06 06:13:08;;;;;;;15.13;3.53;;;32.80;40.10;;;;;;5038708;28;20374;-80
2022/07/06 06:15:34;;;;;;;17.05;3.58;;;32.90;40.10;;;;;;5074665;28;20035;-79
2022/07/06 06:18:01;;;;;;;17.05;3.90;;;33.10;39.80;;;;;;5076211;28;20469;-78
2022/07/06 06:20:27;;;;;;;13.05;3.72;;;33.10;39.50;;;;;;5076020;28;20569;-79
2022/07/06 06:22:58;;;;;;;12.75;3.70;;;33.40;39.60;;;;;;5060443;28;20048;-70
2022/07/06 06:25:28;;;;;;;20.63;4.07;;;33.50;39.60;;;;;;5076757;28;20481;-75
2022/07/06 06:27:54;;;;;;;15.63;3.83;;;33.50;39.10;;;;;;5075826;28;20032;-71
2022/07/06 06:30:20;;;;;;;16.13;3.60;;;33.50;39.30;;;;;;5057642;28;20376;-74
2022/07/06 06:32:46;;;;;;;16.27;3.50;;;33.80;39.00;;;;;;5075099;28;20095;-81
2022/07/06 06:35:14;;;;;;;14.30;3.85;;;34.10;39.00;;;;;;5075610;28;20024;-69
2022/07/06 06:37:41;;;;;;;18.92;4.20;;;34.20;38.80;;;;;;5075597;28;20082;-71
2022/07/06 06:40:09;;;;;;;17.58;4.63;;;34.50;38.70;;;;;;5057419;28;20059;-71
2022/07/06 06:42:39;;;;;;;15.88;4.43;;;34.60;38.40;;;;;;5072134;28;20102;-71
2022/07/06 06:45:06;;;;;;;13.60;4.05;;;34.50;37.70;;;;;;5056983;28;20389;-71
2022/07/06 06:47:31;;;;;;;17.23;3.85;;;34.60;37.80;;;;;;5075392;28;20108;-70
2022/07/06 06:49:57;;;;;;;11.57;3.50;;;34.70;37.70;;;;;;5075177;28;20105;-72
2022/07/06 06:52:23;;;;;;;14.63;3.75;;;34.60;37.50;;;;;;5075047;28;20035;-70
2022/07/06 06:54:49;;;;;;;15.60;4.03;;;34.50;37.60;;;;;;5075468;28;20013;-77
2022/07/06 06:57:18;;;;;;;16.40;4.78;;;34.50;37.50;;;;;;5076000;28;20399;-76
2022/07/06 06:59:44;;;;;;;20.30;3.97;;;34.50;37.60;;;;;;5074880;28;20119;-77
2022/07/06 07:02:11;;;;;;;21.67;4.43;;;34.50;37.80;;;;;;5075533;28;20040;-80
2022/07/06 07:04:40;;;;;;;16.10;4.20;;;34.40;37.80;;;;;;5074875;28;20044;-79
2022/07/06 07:07:05;;;;;;;16.80;3.92;;;34.50;37.80;;;;;;5075860;28;20032;-76
2022/07/06 07:09:32;;;;;;;20.25;4.10;;;34.40;37.90;;;;;;5075598;28;20024;-77
2022/07/06 07:11:58;;;;;;;11.85;3.55;;;34.30;37.80;;;;;;5075618;28;20051;-78
2022/07/06 07:14:24;;;;;;;19.02;4.18;;;34.30;37.90;;;;;;5075738;28;20025;-79
2022/07/06 07:16:50;;;;;;;19.60;3.90;;;34.50;37.60;;;;;;5074949;28;20025;-75
2022/07/06 07:19:16;;;;;;;14.38;4.43;;;34.70;37.50;;;;;;5074497;28;20067;-72
2022/07/06 07:21:43;;;;;;;18.60;4.57;;;34.80;37.30;;;;;;5075468;28;20046;-81
2022/07/06 07:24:09;;;;;;;14.60;4.13;;;34.80;37.40;;;;;;5077513;28;20034;-75
2022/07/06 07:26:35;;;;;;;17.17;4.00;;;34.80;37.40;;;;;;5080225;28;20024;-75
2022/07/06 07:29:01;;;;;;;22.88;4.22;;;34.60;37.50;;;;;;5080834;28;20035;-70
2022/07/06 07:31:30;;;;;;;20.50;4.15;;;34.60;37.50;;;;;;5059224;28;20361;-73
2022/07/06 07:33:58;;;;;;;10.32;3.80;;;34.60;37.80;;;;;;5075676;28;20036;-77
2022/07/06 07:36:24;;;;;;;21.65;4.22;;;34.70;37.60;;;;;;5074539;28;20031;-73
2022/07/06 07:38:50;;;;;;;17.10;3.85;;;34.80;37.50;;;;;;5074521;28;20025;-71
2022/07/06 07:41:17;;;;;;;16.95;3.30;;;34.90;37.20;;;;;;5056551;28;20028;-72
2022/07/06 07:43:44;;;;;;;17.83;3.47;;;35.00;37.40;;;;;;5074664;28;20058;-72
2022/07/06 07:46:12;;;;;;;19.20;3.85;;;35.00;37.10;;;;;;5074514;28;20410;-73
2022/07/06 07:48:39;;;;;;;14.98;3.75;;;35.00;37.20;;;;;;5073969;28;20021;-71
2022/07/06 07:51:05;;;;;;;16.33;4.03;;;34.90;36.90;;;;;;5073967;28;20017;-70
2022/07/06 07:53:31;;;;;;;17.85;4.25;;;34.90;36.70;;;;;;5056033;28;20372;-71
2022/07/06 07:55:56;;;;;;;16.40;3.47;;;34.90;36.90;;;;;;5074029;28;20092;-74
2022/07/06 07:58:22;;;;;;;11.15;3.20;;;34.80;36.90;;;;;;5073565;28;20048;-74
2022/07/06 08:00:48;;;;;;;19.65;4.63;;;34.80;37.10;;;;;;5073875;28;20087;-70
2022/07/06 08:03:36;;;;;;;20.65;4.00;;;34.70;37.30;;;;;;5073816;28;20435;-76
2022/07/06 08:06:02;;;;;;;19.48;4.47;;;34.70;37.60;;;;;;5073555;28;20024;-77
2022/07/06 08:08:27;;;;;;;19.10;4.60;;;34.50;37.20;;;;;;5073945;28;20354;-74
2022/07/06 08:10:53;;;;;;;16.45;3.67;;;34.30;37.40;;;;;;5056163;28;20059;-78
2022/07/06 08:13:19;;;;;;;17.70;3.95;;;34.30;37.30;;;;;;5073965;28;20044;-76
2022/07/06 08:15:46;;;;;;;16.95;3.75;;;34.20;37.70;;;;;;5055568;28;20060;-76
2022/07/06 08:18:12;;;;;;;13.32;3.38;;;34.10;38.20;;;;;;5073342;28;20024;-70
2022/07/06 08:20:39;;;;;;;11.32;5.03;;;34.10;37.70;;;;;;5073921;28;20032;-76
2022/07/06 08:23:07;;;;;;;17.58;4.20;;;34.10;38.10;;;;;;5074063;28;20447;-70
2022/07/06 08:25:33;;;;;;;11.35;3.42;;;34.10;38.20;;;;;;5074963;28;20032;-80
2022/07/06 08:28:01;;;;;;;15.75;4.22;;;34.30;37.80;;;;;;5076331;28;20440;-70
2022/07/06 08:30:28;;;;;;;10.73;3.38;;;34.30;37.60;;;;;;5078264;28;20476;-73
2022/07/06 08:32:58;;;;;;;20.23;4.25;;;34.50;37.40;;;;;;5075421;28;20025;-80
2022/07/06 08:35:24;;;;;;;14.98;3.72;;;34.50;37.80;;;;;;5073447;28;20420;-77
2022/07/06 08:37:50;;;;;;;16.90;3.63;;;34.50;37.30;;;;;;5073329;28;20020;-72
2022/07/06 08:40:15;;;;;;;13.77;3.65;;;34.50;37.20;;;;;;5073324;28;20032;-76
2022/07/06 08:42:43;;;;;;;14.00;4.00;;;34.40;37.50;;;;;;5073148;28;20028;-76
2022/07/06 08:45:11;;;;;;;15.50;3.47;;;34.30;37.20;;;;;;5073598;28;20056;-74
2022/07/06 08:47:37;;;;;;;10.10;3.20;;;34.30;37.10;;;;;;5056861;28;20144;-72
2022/07/06 08:50:05;;;;;;;13.05;2.95;;;34.10;37.30;;;;;;5073900;28;20048;-73
2022/07/06 08:52:31;;;;;;;15.95;2.90;;;34.10;37.70;;;;;;5073259;28;20020;-75
2022/07/06 08:54:58;;;;;;;20.27;3.88;;;33.90;37.60;;;;;;5073285;28;20362;-74
2022/07/06 08:57:25;;;;;;;25.67;4.05;;;33.90;38.10;;;;;;5073107;28;20017;-78
2022/07/06 08:59:51;;;;;;;11.18;3.55;;;33.90;37.70;;;;;;5073377;28;20131;-77
2022/07/06 09:02:17;;;;;;;19.92;4.03;;;33.90;37.80;;;;;;5073536;28;20119;-73
2022/07/06 09:04:44;;;;;;;15.07;3.65;;;34.00;38.30;;;;;;5072779;28;20023;-71
2022/07/06 09:07:10;;;;;;;9.05;3.53;;;34.00;37.90;;;;;;5073102;28;20024;-71
2022/07/06 09:09:37;;;;;;;19.20;3.58;;;34.00;37.80;;;;;;5054774;28;20077;-71
2022/07/06 09:12:03;;;;;;;13.10;3.35;;;34.00;37.80;;;;;;5054709;28;20035;-80
2022/07/06 09:14:29;;;;;;;14.07;3.47;;;33.90;37.90;;;;;;5073259;28;20082;-80
2022/07/06 09:17:13;;;;;;;12.20;3.97;;;33.90;37.90;;;;;;5073099;28;20056;-74
2022/07/06 09:19:40;;;;;;;15.40;3.75;;;34.00;38.20;;;;;;5072979;28;20043;-76
2022/07/06 09:22:06;;;;;;;15.07;3.35;;;34.00;38.70;;;;;;5072610;28;20024;-74
2022/07/06 09:24:38;;;;;;;16.73;3.80;;;34.00;38.30;;;;;;5073061;28;20103;-77
2022/07/06 09:27:04;;;;;;;13.32;3.30;;;34.00;38.40;;;;;;5076160;28;20138;-79
2022/07/06 09:29:33;;;;;;;15.07;3.90;;;34.10;38.20;;;;;;5059314;28;20035;-70
2022/07/06 09:32:01;;;;;;;13.73;3.20;;;34.10;38.50;;;;;;5076632;28;20469;-69
2022/07/06 09:34:43;;;;;;;14.02;3.53;;;34.10;37.80;;;;;;5076467;28;20055;-71
2022/07/06 09:37:12;;;;;;;10.45;3.17;;;34.10;38.00;;;;;;5076610;28;20485;-77
2022/07/06 09:39:38;;;;;;;17.65;3.22;;;34.10;37.90;;;;;;5059323;28;20029;-72
2022/07/06 09:42:08;;;;;;;12.57;3.28;;;34.10;37.50;;;;;;5076698;28;20032;-71
2022/07/06 09:44:38;;;;;;;23.90;3.80;;;34.20;37.30;;;;;;5076676;28;20029;-71
2022/07/06 09:47:10;;;;;;;14.65;3.58;;;34.20;37.20;;;;;;5077074;28;20499;-71
2022/07/06 09:49:37;;;;;;;11.80;3.63;;;34.20;37.00;;;;;;5076187;28;20039;-77
2022/07/06 09:52:06;;;;;;;11.68;3.60;;;34.30;37.00;;;;;;5076087;28;20491;-72
2022/07/06 09:54:38;;;;;;;12.00;3.00;;;34.30;36.60;;;;;;5058523;28;20035;-70
2022/07/06 09:57:05;;;;;;;8.25;3.15;;;34.30;36.90;;;;;;5077610;28;20028;-70
2022/07/06 09:59:33;;;;;;;7.72;2.97;;;34.40;37.10;;;;;;5076376;28;20048;-75
2022/07/06 10:02:08;;;;;;;11.27;3.08;;;34.40;35.50;;;;;;5076021;28;20032;-72
2022/07/06 10:04:34;;;;;;;15.35;3.10;;;34.40;35.30;;;;;;5076106;28;20047;-73
2022/07/06 10:07:02;;;;;;;13.45;2.63;;;34.40;35.30;;;;;;5057973;28;20021;-72
2022/07/06 10:09:30;;;;;;;8.70;2.95;;;34.40;34.20;;;;;;5076181;28;20436;-74
2022/07/06 10:12:10;;;;;;;9.93;2.50;;;34.50;34.30;;;;;;5058048;28;20029;-72
2022/07/06 10:14:37;;;;;;;10.38;3.20;;;34.50;34.00;;;;;;5075527;28;20058;-74
2022/07/06 10:17:04;;;;;;;9.18;3.10;;;34.50;33.80;;;;;;5076020;28;20036;-75
2022/07/06 10:19:32;;;;;;;11.85;2.88;;;34.60;33.40;;;;;;5076398;28;20028;-72
2022/07/06 10:22:02;;;;;;;9.90;2.80;;;34.60;33.40;;;;;;5077444;28;20029;-73
2022/07/06 10:24:29;;;;;;;13.13;3.10;;;34.70;33.70;;;;;;5076773;28;20028;-80
2022/07/06 10:26:55;;;;;;;10.20;2.85;;;34.80;33.80;;;;;;5041351;28;20028;-69
2022/07/06 10:29:22;;;;;;;7.45;2.70;;;34.80;33.10;;;;;;5059815;28;20389;-71
2022/07/06 10:31:51;;;;;;;13.68;3.42;;;34.80;32.50;;;;;;5059532;28;20037;-73
2022/07/06 10:34:19;;;;;;;10.30;3.08;;;34.80;32.00;;;;;;5076485;28;20052;-70
2022/07/06 10:36:50;;;;;;;13.82;3.28;;;34.90;32.00;;;;;;5076157;28;20025;-72
2022/07/06 10:42:41;;;;;;;18.50;3.47;;;35.00;32.90;;;;;;5076085;28;20039;-77
2022/07/06 10:45:07;;;;;;;12.75;2.90;;;35.10;32.70;;;;;;5075685;28;20135;-75
2022/07/06 10:47:35;;;;;;;11.85;3.20;;;35.10;32.40;;;;;;5075738;28;20024;-70
2022/07/06 10:50:01;;;;;;;16.67;3.38;;;35.10;32.90;;;;;;5076735;28;20048;-69
2022/07/06 10:52:48;;;;;;;11.65;3.22;;;35.20;32.60;;;;;;5076210;28;20025;-71
2022/07/06 10:55:34;;;;;;;10.52;3.30;;;35.20;33.20;;;;;;5077247;28;20017;-74
2022/07/06 10:58:00;;;;;;;15.25;3.55;;;35.30;33.50;;;;;;5075636;28;20073;-71
2022/07/06 11:00:54;;;;;;;10.80;3.50;;;35.30;33.50;;;;;;5076869;28;20082;-70
2022/07/06 11:03:46;;;;;;;13.27;3.92;;;35.30;33.50;;;;;;5085047;28;20037;-74
2022/07/06 11:06:14;;;;;;;14.35;3.55;;;35.40;33.30;;;;;;5082769;28;20017;-69
2022/07/06 11:09:04;;;;;;;11.40;4.25;;;35.40;33.30;;;;;;5057284;28;20032;-72
2022/07/06 11:11:35;;;;;;;8.30;3.22;;;35.50;33.20;;;;;;5075455;28;20020;-72
2022/07/06 11:14:15;;;;;;;10.05;3.20;;;35.60;33.20;;;;;;5075423;28;20052;-76
2022/07/06 11:16:47;;;;;;;10.57;4.25;;;35.60;33.30;;;;;;5041203;28;20020;-76
2022/07/06 11:19:23;;;;;;;13.35;3.75;;;35.70;33.00;;;;;;5075202;28;20093;-75
2022/07/06 11:21:51;;;;;;;14.35;3.90;;;35.70;32.20;;;;;;5075213;28;20526;-76
2022/07/06 11:24:24;;;;;;;12.70;2.95;;;35.70;32.00;;;;;;5075843;28;20033;-77
2022/07/06 11:26:52;;;;;;;14.02;3.65;;;35.80;32.20;;;;;;5075977;28;20377;-77
2022/07/06 11:29:24;;;;;;;15.00;3.10;;;35.80;31.80;;;;;;5057281;28;20421;-74
2022/07/06 11:31:54;;;;;;;13.70;3.60;;;35.90;31.40;;;;;;5075590;28;20021;-75
2022/07/06 11:34:28;;;;;;;11.65;3.75;;;35.90;31.40;;;;;;5040661;28;20040;-79
2022/07/06 11:36:59;;;;;;;12.88;3.33;;;36.00;31.30;;;;;;5075318;28;20027;-79
2022/07/06 11:39:32;;;;;;;11.77;3.28;;;36.00;30.90;;;;;;5075360;28;20025;-77
2022/07/06 11:42:00;;;;;;;15.10;3.20;;;36.00;30.60;;;;;;5057712;28;20051;-78
2022/07/06 11:44:27;;;;;;;9.35;3.28;;;36.10;31.00;;;;;;5082338;28;20032;-72
2022/07/06 11:46:56;;;;;;;12.27;3.75;;;36.10;30.80;;;;;;5065089;28;20477;-72
2022/07/06 11:49:23;;;;;;;11.68;3.47;;;36.10;31.30;;;;;;5085504;28;20033;-72
2022/07/06 11:51:50;;;;;;;10.27;3.35;;;36.10;31.40;;;;;;5083811;28;20024;-76
2022/07/06 11:54:23;;;;;;;16.83;4.18;;;36.10;32.20;;;;;;5082442;28;20303;-77
2022/07/06 11:57:03;;;;;;;12.05;3.40;;;36.10;32.50;;;;;;5074903;28;20017;-78
2022/07/06 11:59:32;;;;;;;16.65;4.20;;;36.10;33.00;;;;;;5058519;28;20072;-75
2022/07/06 12:02:05;;;;;;;10.20;3.40;;;36.10;32.80;;;;;;5075386;28;20020;-80
2022/07/06 12:04:35;;;;;;;9.70;3.67;;;36.10;35.00;;;;;;5079277;28;20032;-76
2022/07/06 12:07:15;;;;;;;14.70;3.10;;;36.10;32.70;;;;;;5052527;28;20477;-73
2022/07/06 12:09:43;;;;;;;8.60;3.40;;;36.10;32.80;;;;;;5077012;28;20035;-74
2022/07/06 12:12:12;;;;;;;14.70;4.03;;;36.10;32.60;;;;;;5074704;28;20024;-74
2022/07/06 12:14:42;;;;;;;14.43;3.80;;;36.10;33.20;;;;;;5075172;28;20028;-72
2022/07/06 12:17:11;;;;;;;11.50;4.00;;;36.10;33.70;;;;;;5074925;28;20095;-78
2022/07/06 12:19:38;;;;;;;8.70;3.33;;;36.10;33.80;;;;;;5056168;28;20032;-81
2022/07/06 12:22:10;;;;;;;10.85;4.00;;;36.10;33.80;;;;;;5056595;28;20029;-80
2022/07/06 12:24:43;;;;;;;12.50;3.90;;;36.10;34.00;;;;;;5074201;28;20055;-78
2022/07/06 12:27:13;;;;;;;11.13;3.38;;;36.10;33.70;;;;;;5074036;28;20044;-76
2022/07/06 12:29:39;;;;;;;11.82;3.42;;;36.10;33.90;;;;;;5074000;28;20040;-81
2022/07/06 12:32:06;;;;;;;15.77;3.55;;;36.10;33.60;;;;;;5073839;28;20024;-74
2022/07/06 12:34:34;;;;;;;9.95;2.50;;;36.10;33.10;;;;;;5073950;28;20030;-80
2022/07/06 12:37:06;;;;;;;10.90;2.97;;;36.10;32.20;;;;;;5056113;28;20036;-79
2022/07/06 12:39:44;;;;;;;13.18;3.38;;;36.00;32.30;;;;;;5074006;28;20027;-76
2022/07/06 12:42:10;;;;;;;12.15;3.05;;;36.10;32.60;;;;;;5074272;28;20165;-80
2022/07/06 12:44:49;;;;;;;12.30;3.03;;;36.10;32.20;;;;;;5073758;28;20093;-74
2022/07/06 12:47:42;;;;;;;10.55;2.90;;;36.10;32.60;;;;;;5072912;28;20020;-78
2022/07/06 12:50:11;;;;;;;12.15;2.95;;;36.10;32.90;;;;;;5071868;28;20074;-80